Terminal Aerodrome Forecast
Issued by NWS Cleveland, OH

Home | Current Version | Previous Version | Text Only | Print | Product List | Glossary Off
Versions: 1 2 3 4 5 6 7 8 9 10 11 12 13 14 15 16

137
FTUS41 KCLE 150540
TAFTOL
TAF
KTOL 150540Z 1506/1606 20010KT P6SM BKN070 WS020/22045KT
     FM151000 22015G25KT P6SM VCSH SCT030 OVC045
      TEMPO 1511/1514 6SM -SHRA BKN025
     FM151400 24020G30KT P6SM -SHRA OVC020
      TEMPO 1514/1516 26025G38KT 5SM -SHRA BKN015
     FM151700 28022G32KT P6SM OVC025
     FM160000 30014KT P6SM BKN035
     FM160400 31009KT P6SM SCT060=

USA.gov is the U.S. government's official web portal to all federal, state and local government web resources and services.